Time;durP1;ratioP1;P1;durP2;ratioP2;P2;SDS_P1;SDS_P2;PMS_P1;PMS_P2;Temp;Humidity;BMP_temperature;BMP_pressure;BME280_temperature;BME280_humidity;BME280_pressure;Samples;Min_cycle;Max_cycle;Signal;HPM_P1;HPM_P2
2021/12/04 00:02:59;;;;;;;5.95;4.47;;;;;;;3.50;75.73;99020.66;10354486;28;20053;-62
2021/12/04 00:08:01;;;;;;;4.55;3.75;;;;;;;3.44;75.99;98986.03;10354407;28;20056;-61
2021/12/04 00:13:02;;;;;;;4.72;4.05;;;;;;;3.58;76.12;99003.47;10363891;28;20064;-63
2021/12/04 00:18:04;;;;;;;4.65;3.95;;;;;;;3.36;76.99;98976.03;10372785;28;20045;-64
2021/12/04 00:23:05;;;;;;;6.32;4.43;;;;;;;3.47;77.09;98984.03;10344153;28;20070;-64
2021/12/04 00:28:07;;;;;;;5.75;4.05;;;;;;;3.37;77.43;98967.22;10359816;28;20045;-63
2021/12/04 00:33:15;;;;;;;5.20;4.07;;;;;;;3.45;76.98;98949.09;10354285;28;20057;-63
2021/12/04 00:54:09;;;;;;;6.68;5.03;;;;;;;3.60;74.09;98914.72;10353409;28;20061;-63
2021/12/04 00:59:12;;;;;;;4.78;3.95;;;;;;;3.72;72.95;98916.44;10352461;28;20049;-64
2021/12/04 01:04:16;;;;;;;6.80;3.50;;;;;;;3.59;73.34;98908.63;10352616;28;20149;-63
2021/12/04 01:09:21;;;;;;;4.82;3.75;;;;;;;3.37;73.44;98893.56;10370389;28;20140;-63
2021/12/04 01:14:26;;;;;;;5.20;3.58;;;;;;;3.42;73.35;98898.47;10357187;28;20136;-64
2021/12/04 01:19:29;;;;;;;4.28;3.22;;;;;;;3.51;73.55;98903.94;10353024;28;20124;-63
2021/12/04 01:24:32;;;;;;;4.18;3.28;;;;;;;3.51;74.39;98892.53;10363777;28;20046;-63
2021/12/04 01:29:33;;;;;;;5.68;3.78;;;;;;;3.54;75.00;98890.56;10382237;28;20162;-63
2021/12/04 01:34:38;;;;;;;6.50;3.90;;;;;;;3.54;75.61;98897.59;10348880;28;20128;-63
2021/12/04 01:39:39;;;;;;;5.57;3.87;;;;;;;3.49;76.17;98874.25;10358851;28;20121;-62
2021/12/04 01:44:40;;;;;;;6.00;3.50;;;;;;;3.38;77.18;98879.47;10351392;28;20126;-62
2021/12/04 01:49:42;;;;;;;4.68;3.70;;;;;;;3.11;78.09;98850.75;10357694;28;20073;-63
2021/12/04 01:54:45;;;;;;;5.20;4.10;;;;;;;3.11;78.17;98866.53;10345539;28;20513;-66
2021/12/04 01:59:48;;;;;;;5.28;4.03;;;;;;;3.02;78.74;98860.13;10355373;28;20144;-63
2021/12/04 02:04:49;;;;;;;5.15;4.03;;;;;;;3.03;79.06;98861.78;10349387;28;20148;-63
2021/12/04 02:09:51;;;;;;;4.35;3.95;;;;;;;3.01;78.59;98832.16;10357770;28;20056;-64
2021/12/04 02:14:52;;;;;;;7.90;3.92;;;;;;;3.10;79.08;98844.63;10366478;28;20134;-64
2021/12/04 02:19:54;;;;;;;5.75;3.80;;;;;;;3.12;79.02;98832.22;10358051;28;20132;-63
2021/12/04 02:24:55;;;;;;;4.78;3.72;;;;;;;3.14;79.01;98830.31;10348604;28;20133;-63
2021/12/04 02:29:56;;;;;;;4.75;4.05;;;;;;;3.02;79.53;98831.22;10350007;28;20125;-63
2021/12/04 02:34:58;;;;;;;7.25;4.40;;;;;;;2.73;80.77;98802.59;10356167;28;20041;-64
2021/12/04 02:40:00;;;;;;;6.57;4.20;;;;;;;2.81;81.08;98808.13;10365471;28;20055;-63
2021/12/04 02:45:05;;;;;;;5.75;4.57;;;;;;;2.70;81.69;98794.91;10367976;28;20125;-63
2021/12/04 02:50:10;;;;;;;6.50;4.70;;;;;;;2.73;81.40;98778.09;10360539;28;20532;-63
2021/12/04 02:55:14;;;;;;;5.00;3.92;;;;;;;2.61;81.69;98754.38;10366526;28;20135;-64
2021/12/04 03:00:19;;;;;;;5.43;4.15;;;;;;;2.66;81.60;98738.28;10363283;28;20042;-63
2021/12/04 03:05:24;;;;;;;4.97;4.55;;;;;;;2.72;81.62;98744.88;10383458;28;20127;-63
2021/12/04 03:10:26;;;;;;;;;;;;;;;2.67;82.05;98733.88;10376261;28;20038;-63
2021/12/04 03:15:27;;;;;;;5.32;4.10;;;;;;;2.62;82.01;98729.78;10353512;28;20411;-63
2021/12/04 03:20:28;;;;;;;6.50;4.22;;;;;;;2.64;82.34;98712.13;10361438;28;20240;-64
2021/12/04 03:25:30;;;;;;;5.40;4.88;;;;;;;2.80;81.40;98711.84;10354342;28;20133;-63
2021/12/04 03:40:55;;;;;;;4.93;4.43;;;;;;;2.81;81.21;98694.31;10368257;28;20759;-64
2021/12/04 03:46:00;;;;;;;4.77;4.37;;;;;;;2.76;81.46;98689.38;10357411;28;20048;-63
2021/12/04 03:51:03;;;;;;;;;;;;;;;2.81;81.41;98682.00;10363864;28;20050;-63
2021/12/04 03:56:05;;;;;;;5.22;4.03;;;;;;;2.95;81.69;98683.59;10354872;28;20429;-64
2021/12/04 04:01:07;;;;;;;4.63;4.22;;;;;;;2.83;80.94;98664.31;10353783;28;20076;-63
2021/12/04 04:06:08;;;;;;;4.65;4.13;;;;;;;2.87;80.88;98669.34;10366577;28;20060;-63
2021/12/04 04:11:10;;;;;;;5.25;4.75;;;;;;;2.76;81.14;98657.00;10381081;28;20419;-63
2021/12/04 04:16:12;;;;;;;5.82;5.22;;;;;;;2.81;80.91;98666.22;10366883;28;20124;-63
2021/12/04 04:21:14;;;;;;;5.03;4.50;;;;;;;2.77;81.08;98645.53;10353635;28;20069;-65
2021/12/04 04:26:15;;;;;;;5.65;4.43;;;;;;;2.83;81.03;98651.16;10353321;28;20318;-63
2021/12/04 04:31:16;;;;;;;5.43;4.93;;;;;;;2.79;81.22;98651.50;10352036;28;20113;-63
2021/12/04 04:57:42;;;;;;;5.78;5.28;;;;;;;2.82;81.57;98631.13;10375831;28;20120;-65
2021/12/04 05:13:25;;;;;;;5.50;5.00;;;;;;;2.88;81.04;98592.16;10385721;28;21670;-66
2021/12/04 05:23:32;;;;;;;4.88;4.47;;;;;;;2.92;81.00;98577.84;10366039;28;20583;-66
2021/12/04 05:28:34;;;;;;;5.40;4.90;;;;;;;2.94;80.99;98581.19;10371737;28;20054;-66
2021/12/04 05:33:35;;;;;;;5.45;4.95;;;;;;;2.91;81.20;98576.16;10363428;28;20527;-66
2021/12/04 05:38:37;;;;;;;6.30;5.63;;;;;;;2.91;81.10;98563.03;10375113;28;20072;-66
2021/12/04 05:43:39;;;;;;;6.80;6.20;;;;;;;2.96;81.23;98566.16;10361351;28;20042;-66
2021/12/04 05:48:52;;;;;;;5.85;5.30;;;;;;;2.96;81.40;98563.53;10355449;28;20467;-65
2021/12/04 05:53:59;;;;;;;7.38;6.05;;;;;;;2.98;81.11;98565.06;10357075;28;20041;-65
2021/12/04 05:59:02;;;;;;;6.03;5.28;;;;;;;2.98;81.13;98561.63;10349867;28;20046;-65
2021/12/04 06:04:04;;;;;;;5.95;4.90;;;;;;;2.98;81.31;98557.19;10348428;28;20137;-65
2021/12/04 06:09:05;;;;;;;5.32;4.78;;;;;;;2.96;81.75;98558.28;10372929;28;20132;-67
2021/12/04 06:14:07;;;;;;;6.13;4.70;;;;;;;2.99;81.78;98558.88;10370165;28;20054;-66
2021/12/04 06:19:11;;;;;;;6.30;5.70;;;;;;;3.04;81.55;98553.25;10351412;28;20596;-68
2021/12/04 06:24:12;;;;;;;6.90;5.55;;;;;;;3.10;81.21;98557.22;10360946;28;20209;-68
2021/12/04 06:29:14;;;;;;;7.20;6.45;;;;;;;3.11;81.35;98536.06;10349967;28;20049;-66
2021/12/04 06:34:15;;;;;;;7.85;6.13;;;;;;;3.19;81.35;98557.31;10349708;28;20125;-66
2021/12/04 06:39:17;;;;;;;6.93;6.22;;;;;;;3.19;80.78;98546.81;10367861;28;20049;-65
2021/12/04 06:44:19;;;;;;;6.65;5.97;;;;;;;3.14;81.32;98556.84;10348702;28;20144;-66
2021/12/04 06:49:34;;;;;;;6.15;5.55;;;;;;;3.15;81.21;98563.81;10346405;28;20049;-66
2021/12/04 06:54:38;;;;;;;7.93;6.80;;;;;;;3.19;81.40;98549.44;10355997;28;20049;-67
2021/12/04 06:59:41;;;;;;;8.43;7.60;;;;;;;3.21;81.06;98535.34;10363221;28;20554;-65
2021/12/04 07:04:43;;;;;;;9.68;8.77;;;;;;;3.14;81.24;98520.03;10379577;28;20069;-65
2021/12/04 07:09:44;;;;;;;10.75;9.75;;;;;;;3.17;81.50;98517.19;10385676;28;20168;-65
2021/12/04 07:14:46;;;;;;;7.70;6.50;;;;;;;3.23;81.22;98528.16;10369436;28;20067;-65
2021/12/04 07:19:47;;;;;;;10.07;9.02;;;;;;;3.27;81.39;98519.09;10383476;28;20060;-65
2021/12/04 07:24:48;;;;;;;10.57;9.48;;;;;;;3.23;81.45;98507.97;10369669;28;20045;-64
2021/12/04 07:29:50;;;;;;;9.88;8.80;;;;;;;3.27;81.43;98509.44;10378477;28;20053;-65
2021/12/04 07:34:53;;;;;;;10.23;9.13;;;;;;;3.18;81.41;98481.19;10380174;28;20050;-66
2021/12/04 07:39:54;;;;;;;8.95;8.13;;;;;;;3.34;81.60;98500.06;10382254;28;20121;-65
2021/12/04 07:44:57;;;;;;;8.90;7.53;;;;;;;3.43;81.16;98506.41;10380231;28;20053;-67
2021/12/04 07:50:00;;;;;;;9.02;8.15;;;;;;;3.43;81.00;98493.25;10376359;28;20129;-67
2021/12/04 07:55:02;;;;;;;8.68;7.80;;;;;;;3.44;81.13;98494.94;10376326;28;20057;-69
2021/12/04 08:00:07;;;;;;;7.75;6.78;;;;;;;3.46;81.56;98495.63;10378552;28;20420;-65
2021/12/04 08:05:09;;;;;;;8.23;7.47;;;;;;;3.44;81.27;98499.34;10376565;28;20049;-66
2021/12/04 08:10:16;;;;;;;7.88;7.10;;;;;;;3.47;81.11;98492.06;10380246;28;20423;-67
2021/12/04 08:15:17;;;;;;;9.15;7.97;;;;;;;3.50;81.22;98478.66;10378967;28;20144;-67
2021/12/04 08:20:19;;;;;;;9.52;8.27;;;;;;;3.53;81.61;98480.22;10392645;28;20301;-66
2021/12/04 08:25:22;;;;;;;9.18;7.40;;;;;;;3.54;81.60;98474.84;10375751;28;20137;-66
2021/12/04 08:30:28;;;;;;;11.38;7.97;;;;;;;3.60;81.57;98481.38;10376378;28;20505;-67
2021/12/04 08:35:31;;;;;;;8.40;7.22;;;;;;;3.61;81.78;98467.28;10393565;28;20053;-65
2021/12/04 08:40:33;;;;;;;9.30;7.55;;;;;;;3.64;81.73;98460.94;10377692;28;20053;-66
2021/12/04 08:45:35;;;;;;;8.80;7.97;;;;;;;3.67;82.19;98463.31;10393213;28;20500;-65
2021/12/04 08:50:37;;;;;;;7.50;6.80;;;;;;;3.75;81.59;98466.16;10378393;28;20168;-64
2021/12/04 08:55:42;;;;;;;8.07;6.82;;;;;;;3.79;81.89;98470.22;10371635;28;20053;-65
2021/12/04 09:00:49;;;;;;;8.80;6.47;;;;;;;3.88;81.80;98481.81;10377254;28;20508;-66
2021/12/04 09:05:52;;;;;;;7.35;6.53;;;;;;;3.96;81.59;98476.75;10377167;28;20118;-65
2021/12/04 09:10:57;;;;;;;8.48;6.72;;;;;;;3.92;81.81;98479.75;10377447;28;20136;-68
2021/12/04 09:15:59;;;;;;;8.45;7.03;;;;;;;3.98;82.02;98476.63;10377987;28;20835;-65
2021/12/04 09:21:04;;;;;;;7.88;7.18;;;;;;;4.08;81.48;98477.53;10380098;28;20534;-66
2021/12/04 09:26:08;;;;;;;8.38;7.43;;;;;;;4.14;81.90;98479.66;10394190;28;20066;-65
2021/12/04 09:36:38;;;;;;;10.48;7.93;;;;;;;4.14;81.72;98455.13;10376683;28;20123;-68
2021/12/04 10:03:34;;;;;;;8.75;7.47;;;;;;;4.28;81.92;98430.28;10375805;28;20412;-63
2021/12/04 10:24:57;;;;;;;9.60;8.70;;;;;;;4.52;82.32;98385.22;10354613;28;20049;-64
2021/12/04 10:35:33;;;;;;;12.25;10.27;;;;;;;4.59;82.36;98368.78;10376696;28;20393;-65
2021/12/04 10:45:49;;;;;;;13.05;11.75;;;;;;;4.49;82.52;98343.31;10285840;28;20405;-64
2021/12/04 10:51:04;;;;;;;15.50;13.23;;;;;;;4.64;82.95;98342.03;10290759;28;20050;-63
2021/12/04 10:56:27;;;;;;;17.23;14.32;;;;;;;4.65;83.18;98321.75;10287284;28;20068;-65
2021/12/04 11:23:17;;;;;;;13.68;12.27;;;;;;;4.80;82.85;98270.34;10293827;28;20042;-61
2021/12/04 11:38:48;;;;;;;8.77;7.95;;;;;;;4.86;83.33;98240.78;10295160;28;20081;-62
2021/12/04 11:43:58;;;;;;;11.25;10.18;;;;;;;4.90;83.47;98228.19;10288509;28;20050;-62
2021/12/04 11:49:09;;;;;;;12.02;10.73;;;;;;;4.95;83.54;98218.91;10296426;28;20088;-62
2021/12/04 11:54:13;;;;;;;12.32;11.02;;;;;;;5.01;83.52;98211.41;10297584;28;20050;-61
2021/12/04 11:59:24;;;;;;;11.85;10.10;;;;;;;4.93;83.25;98191.81;10294823;28;20140;-62
2021/12/04 12:04:39;;;;;;;10.43;9.18;;;;;;;5.01;83.86;98195.56;10301513;28;20046;-61
2021/12/04 12:09:41;;;;;;;9.02;8.10;;;;;;;5.03;84.06;98194.47;10292628;28;20043;-63
2021/12/04 12:14:48;;;;;;;8.90;7.97;;;;;;;5.04;84.26;98174.19;10294684;28;20505;-63
2021/12/04 12:19:52;;;;;;;9.98;8.77;;;;;;;5.05;84.29;98157.41;10292798;28;20528;-62
2021/12/04 12:25:13;;;;;;;12.10;10.67;;;;;;;5.09;84.24;98156.19;10293659;28;20053;-63
2021/12/04 12:36:09;;;;;;;12.95;11.65;;;;;;;5.23;84.54;98157.53;10293788;28;20060;-63
2021/12/04 12:41:22;;;;;;;13.10;11.77;;;;;;;5.19;84.31;98135.88;10300497;28;20156;-63
2021/12/04 12:46:47;;;;;;;13.27;11.70;;;;;;;5.22;84.80;98145.31;10323439;28;20058;-63
2021/12/04 12:52:12;;;;;;;11.40;10.20;;;;;;;5.23;84.71;98121.44;10288691;28;20054;-63
2021/12/04 12:57:22;;;;;;;11.07;10.03;;;;;;;5.27;84.80;98107.00;10293256;28;20048;-64
2021/12/04 13:13:07;;;;;;;12.75;10.60;;;;;;;5.21;85.67;98068.00;10296454;28;21231;-62
2021/12/04 13:18:22;;;;;;;12.95;11.15;;;;;;;5.32;86.03;98073.09;10295068;28;20046;-63
2021/12/04 13:23:26;;;;;;;10.90;9.80;;;;;;;5.36;85.85;98078.94;10290957;28;20042;-63
2021/12/04 13:28:30;;;;;;;11.57;10.38;;;;;;;5.29;85.87;98073.38;10293610;28;20046;-63
2021/12/04 13:33:33;;;;;;;;;;;;;;;5.41;86.05;98070.56;10294647;28;20046;-64
2021/12/04 13:38:35;;;;;;;10.32;9.32;;;;;;;5.40;86.36;98071.53;10293043;28;20025;-63
2021/12/04 13:43:37;;;;;;;11.02;9.45;;;;;;;5.42;86.25;98051.97;10293353;28;20293;-63
2021/12/04 13:48:38;;;;;;;9.82;8.85;;;;;;;5.40;85.94;98034.59;10294109;28;20416;-61
2021/12/04 13:53:43;;;;;;;11.90;10.57;;;;;;;5.35;86.29;98023.66;10282841;28;21185;-62
2021/12/04 13:58:52;;;;;;;12.40;10.32;;;;;;;5.45;86.37;98030.56;10284698;28;20052;-62
2021/12/04 14:04:00;;;;;;;13.23;11.25;;;;;;;5.49;85.50;98036.38;10288802;28;20053;-62
2021/12/04 14:09:04;;;;;;;17.98;11.38;;;;;;;5.45;84.52;98046.41;10295597;28;20074;-62
2021/12/04 14:14:13;;;;;;;12.23;9.70;;;;;;;4.98;84.47;98085.94;10289292;28;20173;-61
2021/12/04 14:19:22;;;;;;;14.75;10.57;;;;;;;5.06;86.33;98067.63;10290013;28;20073;-62
2021/12/04 14:24:26;;;;;;;11.20;9.00;;;;;;;5.05;84.86;98075.66;10289094;28;20507;-62
2021/12/04 14:29:36;;;;;;;11.55;9.32;;;;;;;5.11;84.62;98039.00;10288473;28;20177;-62
2021/12/04 14:34:38;;;;;;;9.30;7.90;;;;;;;4.90;84.32;97961.91;10289772;28;20050;-62
2021/12/04 14:39:46;;;;;;;7.30;6.50;;;;;;;5.11;84.34;98017.06;10289185;28;20054;-61
2021/12/04 14:44:53;;;;;;;8.73;6.78;;;;;;;5.13;84.10;98012.47;10310650;28;20145;-62
2021/12/04 14:49:59;;;;;;;7.25;5.75;;;;;;;5.22;84.03;98003.69;10309391;28;20042;-62
2021/12/04 14:55:22;;;;;;;7.22;5.95;;;;;;;5.36;83.84;98026.16;10291001;28;20050;-62
2021/12/04 15:01:01;;;;;;;7.45;6.25;;;;;;;5.31;84.16;98018.69;10309218;28;20133;-62
2021/12/04 15:06:06;;;;;;;7.35;6.40;;;;;;;5.31;83.81;98034.50;10262314;28;20061;-62
2021/12/04 15:11:11;;;;;;;7.90;6.40;;;;;;;5.35;83.60;98023.66;10306128;28;20063;-62
2021/12/04 15:16:16;;;;;;;7.90;6.75;;;;;;;5.37;83.67;98026.97;10307399;28;20532;-62
2021/12/04 15:21:19;;;;;;;6.85;5.55;;;;;;;5.24;83.69;98016.75;10284980;28;20191;-62
2021/12/04 15:26:21;;;;;;;8.15;6.03;;;;;;;5.02;84.26;97991.56;10310887;28;20162;-62
2021/12/04 15:31:24;;;;;;;8.18;6.55;;;;;;;5.20;84.49;98039.94;10305195;28;20108;-62
2021/12/04 15:36:38;;;;;;;8.17;5.87;;;;;;;5.08;85.15;98043.75;10309951;28;20132;-61
2021/12/04 15:58:04;;;;;;;8.40;7.43;;;;;;;5.41;83.50;98029.19;10321375;28;20042;-62
2021/12/04 16:03:07;;;;;;;7.90;7.10;;;;;;;5.21;84.39;98054.81;10308865;28;20068;-62
2021/12/04 16:08:15;;;;;;;8.07;6.35;;;;;;;5.24;85.38;98043.97;10311770;28;20054;-63
2021/12/04 16:13:38;;;;;;;6.78;5.97;;;;;;;4.93;85.27;98057.34;10318880;28;20106;-63
2021/12/04 16:18:41;;;;;;;7.70;5.85;;;;;;;5.13;85.41;98065.22;10313250;28;22296;-63
2021/12/04 16:23:43;;;;;;;7.18;5.78;;;;;;;4.56;87.63;98086.25;10316431;28;20049;-63
2021/12/04 16:29:01;;;;;;;6.15;5.55;;;;;;;4.66;88.11;98086.25;10307470;28;20094;-62
2021/12/04 16:35:03;;;;;;;7.38;5.97;;;;;;;4.95;87.31;98075.66;10297537;28;20064;-62
2021/12/04 16:39:24;;;;;;;7.10;6.40;;;;;;;5.19;86.62;98085.75;10302467;28;20537;-61
2021/12/04 16:44:26;;;;;;;7.85;6.88;;;;;;;5.36;85.67;98100.03;10311836;28;20054;-62
2021/12/04 16:49:28;;;;;;;7.40;6.03;;;;;;;5.20;85.64;98068.97;10312014;28;20221;-62
2021/12/04 16:55:00;;;;;;;7.18;5.22;;;;;;;5.36;85.60;98093.91;10309010;28;20535;-62
2021/12/04 17:00:06;;;;;;;6.45;5.70;;;;;;;5.49;85.49;98097.06;10305614;28;20439;-62
2021/12/04 17:05:08;;;;;;;8.60;7.70;;;;;;;5.46;85.83;98094.72;10365837;23;20069;-63
2021/12/04 17:10:12;;;;;;;9.10;7.45;;;;;;;5.39;86.39;98117.38;10405126;28;20053;-64
2021/12/04 17:15:13;;;;;;;8.70;7.80;;;;;;;5.42;86.66;98130.28;10404250;28;20045;-64
2021/12/04 17:20:19;;;;;;;9.90;8.90;;;;;;;5.47;86.46;98159.72;10407532;28;20051;-65
2021/12/04 17:25:22;;;;;;;10.23;8.13;;;;;;;5.38;86.77;98160.56;10412268;28;20048;-66
2021/12/04 17:30:25;;;;;;;7.55;6.65;;;;;;;5.19;86.82;98151.69;10409896;28;20053;-66
2021/12/04 17:35:26;;;;;;;7.13;5.88;;;;;;;5.18;87.61;98172.94;10399667;28;20057;-66
2021/12/04 17:40:28;;;;;;;6.60;5.60;;;;;;;5.16;87.74;98175.72;10412303;28;20515;-66
2021/12/04 17:45:31;;;;;;;6.82;5.80;;;;;;;5.11;87.93;98194.59;10410846;28;20053;-65
2021/12/04 17:50:39;;;;;;;6.80;6.10;;;;;;;5.11;87.83;98201.69;10400685;28;20051;-65
2021/12/04 17:55:40;;;;;;;5.80;4.53;;;;;;;4.99;88.04;98213.34;10403815;28;20067;-65
2021/12/04 18:00:48;;;;;;;5.30;4.70;;;;;;;5.03;88.36;98235.81;10410656;28;20059;-67
2021/12/04 18:05:53;;;;;;;7.82;5.50;;;;;;;5.20;88.66;98237.78;10408111;28;20059;-66
2021/12/04 18:10:57;;;;;;;7.78;6.05;;;;;;;5.23;88.12;98248.03;10408321;28;20195;-66
2021/12/04 18:16:03;;;;;;;6.35;5.72;;;;;;;5.28;87.91;98259.03;10409479;28;20471;-66
2021/12/04 18:21:06;;;;;;;7.57;5.65;;;;;;;5.29;87.30;98236.94;10410255;28;20048;-66
2021/12/04 18:26:08;;;;;;;6.97;6.28;;;;;;;5.32;87.84;98263.03;10399895;28;20049;-66
2021/12/04 18:31:09;;;;;;;6.57;5.47;;;;;;;5.40;87.65;98280.81;10410573;28;20532;-66
2021/12/04 18:36:11;;;;;;;6.20;5.60;;;;;;;5.39;86.70;98273.03;10398954;28;20059;-65
2021/12/04 18:41:16;;;;;;;7.88;7.07;;;;;;;5.48;87.00;98288.88;10398789;28;20431;-66
2021/12/04 18:46:24;;;;;;;8.30;7.18;;;;;;;5.59;86.10;98290.53;10408128;28;20466;-65
2021/12/04 18:51:27;;;;;;;12.93;9.02;;;;;;;5.68;85.50;98301.25;10408851;28;20106;-66
2021/12/04 18:56:29;;;;;;;31.90;24.52;;;;;;;5.78;85.18;98317.88;10408913;28;20048;-66
2021/12/04 19:01:31;;;;;;;5.75;5.15;;;;;;;5.84;84.91;98331.38;10407912;28;20052;-66
2021/12/04 19:06:36;;;;;;;6.20;5.60;;;;;;;5.79;84.67;98333.59;10408147;28;20592;-65
2021/12/04 19:11:38;;;;;;;5.70;4.70;;;;;;;5.83;84.62;98358.75;10406661;28;20057;-65
2021/12/04 19:16:39;;;;;;;4.15;3.75;;;;;;;5.72;84.55;98363.31;10404581;28;20195;-65
2021/12/04 19:21:42;;;;;;;9.32;7.43;;;;;;;5.81;84.20;98380.97;10404818;28;20049;-65
2021/12/04 19:26:44;;;;;;;3.72;3.08;;;;;;;5.79;83.67;98377.66;10407917;28;20048;-65
2021/12/04 19:31:51;;;;;;;3.63;3.20;;;;;;;5.86;83.45;98386.69;10415178;28;20209;-65
2021/12/04 19:58:24;;;;;;;2.85;2.58;;;;;;;5.93;82.17;98398.38;10393669;28;20047;-68
2021/12/04 20:13:48;;;;;;;3.72;3.22;;;;;;;6.02;82.51;98457.47;10406938;28;20122;-66
2021/12/04 20:18:54;;;;;;;2.90;2.35;;;;;;;6.07;81.35;98468.47;10409134;28;20079;-67
2021/12/04 20:23:57;;;;;;;3.92;3.05;;;;;;;6.08;81.30;98478.06;10412460;28;20696;-67
2021/12/04 20:29:22;;;;;;;2.95;2.22;;;;;;;6.08;80.50;98503.63;10414055;28;20052;-66
2021/12/04 20:35:31;;;;;;;3.10;2.28;;;;;;;5.97;81.29;98510.69;10412690;28;20525;-66
2021/12/04 21:06:48;;;;;;;11.57;7.20;;;;;;;5.95;78.23;98556.69;10408882;28;20045;-66
2021/12/04 21:12:13;;;;;;;4.35;1.70;;;;;;;5.88;76.68;98559.03;10402238;28;20467;-65
2021/12/04 21:38:48;;;;;;;2.63;1.30;;;;;;;5.93;73.76;98599.09;10413007;28;20135;-69
2021/12/04 21:49:33;;;;;;;2.88;1.98;;;;;;;5.93;72.78;98636.06;10409011;28;20047;-68
2021/12/04 21:54:35;;;;;;;4.72;2.20;;;;;;;5.95;72.04;98628.81;10409055;28;20231;-67
2021/12/04 22:10:24;;;;;;;3.55;2.10;;;;;;;5.86;73.99;98628.81;10411257;28;20041;-66
2021/12/04 22:15:51;;;;;;;4.07;2.03;;;;;;;5.80;74.17;98635.44;10410088;28;20051;-64
2021/12/04 22:26:42;;;;;;;4.15;2.40;;;;;;;5.68;74.82;98642.63;10406226;28;20090;-65
2021/12/04 22:58:29;;;;;;;4.07;2.55;;;;;;;5.17;75.06;98697.03;10427929;28;20547;-65
2021/12/04 23:03:56;;;;;;;4.57;3.10;;;;;;;5.12;75.88;98704.50;10451793;22;20557;-63
2021/12/04 23:14:22;;;;;;;5.75;2.90;;;;;;;5.05;76.07;98737.63;10432888;28;20040;-63
2021/12/04 23:35:18;;;;;;;5.30;3.17;;;;;;;5.07;76.03;98743.59;10428470;28;20057;-63
2021/12/04 23:46:16;;;;;;;5.93;3.05;;;;;;;5.16;75.68;98756.00;10427658;28;20049;-62
